METAR AND TAF INFORMATION
METAR FOR LTBS
ADDS - METARS form results

(2115 UTC 17 August 2018)
Data provider http://aviationweather.gov/adds/metars/
 
METAR text: LTBS 172050Z 03003KT 360V070 CAVOK 24/19 Q1006 NOSIG RMK RWY19 32004KT
Conditions at: LTBS (DALAMAN (COMMUNE, TR) observed 2050 UTC 17 August 2018
Temperature: 24.0°C (75°F)
Dewpoint: 19.0°C (66°F) [RH = 74%]
Pressure (altimeter): 29.70 inches Hg (1006.0 mb)
Winds: from the NNE (30 degrees) at 3 MPH (3 knots; 1.6 m/s)
Visibility: 6 or more miles (10+ km)
Ceiling: ceiling and visibility are OK
Clouds: unknown
Weather: no significant weather observed at this time

METAR text: LTBS 172020Z 04004KT CAVOK 25/19 Q1006 NOSIG RMK RWY19 34004KT
Conditions at: LTBS (DALAMAN (COMMUNE, TR) observed 2020 UTC 17 August 2018
Temperature: 25.0°C (77°F)
Dewpoint: 19.0°C (66°F) [RH = 69%]
Pressure (altimeter): 29.70 inches Hg (1006.0 mb)
Winds: from the NE (40 degrees) at 5 MPH (4 knots; 2.1 m/s)
Visibility: 6 or more miles (10+ km)
Ceiling: ceiling and visibility are OK
Clouds: unknown
Weather: no significant weather observed at this time

Forecast for: LTBS (DALAMAN (COMMUNE, TR)
Text: TAF LTBS 171640Z 1718/1818 VRB02KT CAVOK
Forecast period: 1800 UTC 17 August 2018 to 0700 UTC 18 August 2018
Forecast type: FROM: standard forecast or significant change
Winds: variable direction winds at 2 MPH (2 knots; 1.0 m/s)
Visibility: 6 or more miles (10+ km)
Clouds: not forecast
Weather: NSW  (no significant weather)
Text: BECMG 1807/1809 23014KT FEW030
Forecast period: 0700 to 1600 UTC 18 August 2018
Forecast type: BECOMING: Conditions expected to become as follows by 0900 UTC 18 August 2018
Winds: from the SW (230 degrees) at 16 MPH (14 knots; 7.3 m/s)
Visibility: 6 or more miles (10+ km)
Clouds: few clouds at 3000 feet AGL
Weather: NSW  (no significant weather)
Text: BECMG 1816/1818 VRB02KT CAVOK
Forecast period: 1600 to 1800 UTC 18 August 2018
Forecast type: BECOMING: Conditions expected to become as follows by 1800 UTC 18 August 2018
Winds: variable direction winds at 2 MPH (2 knots; 1.0 m/s)
Visibility: 6 or more miles (10+ km)
Weather: NSW  (no significant weather)

 AIRPORT MAP

 RUNWAY INFORMATION
Runway 01 Runway length 9842 ft Runway width 148 ft
Runway elevation 10 ft Runway displaced threshold 0 ft Runway heading 15
Runway 19 Runway length 9842 ft Runway width 148 ft
Runway elevation 20 ft Runway displaced threshold 0 ft Runway heading 195

 AIRPORT FREQUENCIES
Type APP Name APP Frequency 119.225 MHZ
Type ATIS Name ATIS Frequency 127.35 MHZ
Type GND Name GND Frequency 121.9 MHZ
Type TWR Name TWR Frequency 118.5 MHZ

 AIRPORT NEAR NAVIGATION AIDS
Type TACAN Name Dalaman Frequency 115300 KHZ
Type VOR-DME Name Dalaman Frequency 114700 KHZ
Type NDB Name Dalaman Frequency 346 KHZ



Copyright © 2011 - 2018 BirgenAir Virtual Airlines. All rights reserved. Developed by Goktug Unver